Tiempo atmosférico en la estación meteorológica de Villarrobledo, Albacete (718 m.)



Fecha
DESCASC
Temp. máxima en grados centígrados (hora)
DESCASC
Temp. mínima en grados centígrados (hora)
DESCASC
Temp. media en grados centígrados
DESCASC
Racha de viento máxima en m/sg (hora)
DESCASC
Velocidad máxima media en intervalos de 10 minutos(hora)
DESCASC
Precipitaciones diarias en mm
DESCASC
Precipitaciones de 00:00 a 06:00 en mm
DESCASC
Precipitaciones de 06:00 a 12:00 en mm
DESCASC
Precipitaciones de 12:00 a 18:00 en mm
DESCASC
Precipitaciones de 18:00 a 24:00 en mm
DESCASC
15-08-2019 38.8 (16:40) 16.8 (06:10) 27.8 7.78 (16:10) 5 (16:10) 0 0 0 0 0
14-08-2019 35.5 (17:20) 15.4 (00:00) 25.4 8.61 (18:40) 3.89 (15:50) 0 0 0 0 0
13-08-2019 32.5 (17:40) 18.7 (00:00) 25.6 9.17 (15:50) 4.72 (10:40) 0 0 0 0 0
12-08-2019 32.4 (18:10) 14.5 (00:00) 23.5 12.22 (14:40) 4.72 (14:20) 0 0 0 0 0
11-08-2019 31.5 (16:40) 17.6 (00:00) 24.6 11.94 (16:10) 7.22 (19:30) 0 0 0 0 0
10-08-2019 36.4 (17:40) 18.5 (00:00) 27.5 10.56 (17:50) 5 (17:50) 0 0 0 0 0
09-08-2019 34.6 (17:40) 19.8 (00:00) 27.2 11.94 (15:40) 7.22 (16:20) 0 0 0 0 0
08-08-2019 36.2 (18:00) 16.4 (00:00) 26.3 8.89 (18:30) 5.28 (18:10) 0 0 0 0 0
07-08-2019 32.8 (16:50) 19.4 (00:00) 26.1 12.22 (13:50) 7.5 (13:50) 0 0 0 0 0
06-08-2019 38.2 (17:40) 18.3 (00:00) 28.3 10 (16:00) 5.56 (18:10) 0 0 0 0 0
05-08-2019 39.9 (16:20) 16.6 (00:00) 28.3 7.78 (17:20) 4.17 (18:50) 0 0 0 0 0
04-08-2019 38.5 (17:30) 18.6 (00:00) 28.6 8.61 (17:50) 5 (17:50) 0 0 0 0 0
03-08-2019 39 (16:00) 18.1 (00:00) 28.6 8.61 (02:20) 4.17 (18:40) 0 0 0 0 0
02-08-2019 38.6 (14:50) 16.6 (00:00) 27.6 10.83 (16:10) 3.61 (16:20) 0 0 0 0 0
01-08-2019 36.9 (17:10) 17.1 (00:00) 27 12.22 (00:10) 5.56 (18:50) 0 0 0 0 0
31-07-2019 31 (17:10) 19.2 (00:00) 25.1 14.17 (10:30) 8.33 (11:40) 0 0 0 0 0
30-07-2019 37.2 (18:10) 15.2 (00:00) 26.2 9.17 (23:50) 5 (23:40) 0 0 0 0 0
29-07-2019 33.9 (16:10) 16.5 (00:00) 25.2 11.39 (17:00) 6.39 (17:00) 0 0 0 0 0
28-07-2019 32.4 (17:00) 14.5 (00:00) 23.5 8.33 (18:40) 4.17 (18:50) 0 0 0 0 0
27-07-2019 28.8 (17:00) 17.4 (00:00) 23.1 16.11 (17:30) 9.72 (17:30) 0 0 0 0 0
26-07-2019 32.2 (16:40) 21.8 (00:00) 27 13.61 (16:30) 8.33 (17:00) 0 0 0 0 0
25-07-2019 39.8 (15:50) 19.3 (00:00) 29.5 10 (18:50) 5.28 (18:50) 0 0 0 0 0
24-07-2019 37.5 (15:40) 19.6 (00:00) 28.6 12.78 (17:30) 7.5 (18:10) 0 0 0 0 0
23-07-2019 37.2 (16:40) 19.4 (00:00) 28.3 13.89 (20:00) 8.89 (20:10) 0 0 0 0 0
22-07-2019 35.4 (16:40) 19.3 (00:00) 27.4 15 (20:20) 10 (17:50) 0 0 0 0 0
21-07-2019 35.9 (16:00) 20 (00:00) 28 13.06 (20:40) 6.67 (19:40) 0 0 0 0 0
20-07-2019 39.6 (18:00) 19.4 (00:00) 29.5 10.28 (20:50) 6.67 (21:00) 0 0 0 0 0
19-07-2019 36.7 (17:10) 18.5 (00:00) 27.6 10.83 (16:00) 5.83 (21:00) 0 0 0 0 0

Gráficas

Temp. máximas Temp. mínimas Temp. medias Precipitaciones Rachas de viento máximas Velocidades máximas media en intervalos de 10 minutos

Datos horarios

Fecha y hora oficial Temperatura (ºC) Velocidad del viento (km/h) Dirección del viento Racha (km/h) Dirección de racha Precipitación (mm) Presión (hPa) Tendencia (hPa) Humedad (%)
2019-08-17 23:00:00 28.2 6 Sudeste 12 Sudeste 0 -- -- 25
2019-08-17 22:00:00 30.3 0 Calma 9 Oeste 0 -- -- 22
2019-08-17 21:00:00 34 7 Oeste 23 Sudoeste 0 -- -- 18
2019-08-17 20:00:00 37 12 Oeste 26 Oeste 0 -- -- 16
2019-08-17 19:00:00 37.2 12 Sudoeste 26 Sudoeste 0 -- -- 16
2019-08-17 18:00:00 38.6 16 Oeste 30 Sudoeste 0 -- -- 15
2019-08-17 17:00:00 39.8 9 Noroeste 39 Sudoeste 0 -- -- 14
2019-08-17 16:00:00 37.7 15 Oeste 30 Oeste 0 -- -- 16
2019-08-17 15:00:00 38 10 Oeste 35 Oeste 0 -- -- 16
2019-08-17 14:00:00 37.5 8 Oeste 26 Oeste 0 -- -- 17
2019-08-17 13:00:00 35.5 12 Sudoeste 22 Sudoeste 0 -- -- 20
2019-08-17 12:00:00 34 10 Sudoeste 18 Oeste 0 -- -- 23
2019-08-17 11:00:00 31.7 10 Sudoeste 15 Sudoeste 0 -- -- 25
2019-08-17 10:00:00 31.1 0 Calma 6 Nordeste 0 -- -- 30
2019-08-17 09:00:00 23.9 5 Nordeste 8 Nordeste 0 -- -- 51
2019-08-17 08:00:00 19.9 4 Nordeste 7 Nordeste 0 -- -- 48
2019-08-17 07:00:00 19.5 3 Este 6 Sudeste 0 -- -- 46
2019-08-17 06:00:00 20.5 4 Sudeste 6 Sudeste 0 -- -- 40
2019-08-17 05:00:00 20.7 3 Este 6 Sudeste 0 -- -- 40
2019-08-17 04:00:00 21.9 0 Calma 13 Sudeste 0 -- -- 35
2019-08-17 03:00:00 23.3 4 Oeste 12 Nordeste 0 -- -- 31
2019-08-17 02:00:00 23.4 4 Sudoeste 7 Sur 0 -- -- 31
2019-08-17 01:00:00 24.4 2 Sur 13 Sudeste 0 -- -- 29
2019-08-17 00:00:00 25.4 5 Este 13 Sudoeste 0 -- -- 29
2019-08-16 23:00:00 28.2 4 Sudoeste 12 Sudoeste 0 -- -- 25
2019-08-16 22:00:00 30.3 8 Oeste 15 Oeste 0 -- -- 23
2019-08-16 21:00:00 32.8 8 Oeste 26 Sudoeste 0 -- -- 21
2019-08-16 20:00:00 35.5 17 Oeste 31 Oeste 0 -- -- 17
2019-08-16 19:00:00 36.3 20 Oeste 35 Oeste 0 -- -- 16
2019-08-16 18:00:00 36.9 19 Oeste 34 Oeste 0 -- -- 16
2019-08-16 17:00:00 37.5 18 Oeste 33 Oeste 0 -- -- 16
2019-08-16 16:00:00 37.1 15 Oeste 34 Oeste 0 -- -- 17
2019-08-16 15:00:00 36.3 14 Oeste 28 Oeste 0 -- -- 19
2019-08-16 14:00:00 37 6 Oeste 18 Sudeste 0 -- -- 21
2019-08-16 13:00:00 35.4 3 Noroeste 20 Nordeste 0 -- -- 26
2019-08-16 12:00:00 30.6 13 Este 24 Nordeste 0 -- -- 34
2019-08-16 11:00:00 26.4 9 Este 24 Este 0 -- -- 44
2019-08-16 10:00:00 23.7 10 Este 25 Nordeste 0 -- -- 55
2019-08-16 09:00:00 20.8 8 Este 25 Este 0 -- -- 67
2019-08-16 08:00:00 18.3 9 Este 20 Nordeste 0 -- -- 77
2019-08-16 07:00:00 18.3 10 Este 23 Este 0 -- -- 76
2019-08-16 06:00:00 18.8 9 Este 21 Este 0 -- -- 73
2019-08-16 05:00:00 19.6 10 Este 23 Nordeste 0 -- -- 70
2019-08-16 04:00:00 20.2 9 Este 20 Este 0 -- -- 69
2019-08-16 03:00:00 21 12 Este 25 Este 0 -- -- 67
2019-08-16 02:00:00 22.8 9 Este 26 Nordeste 0 -- -- 55
2019-08-16 01:00:00 23 14 Este 27 Este 0 -- -- 54
2019-08-16 00:00:00 23.5 8 Este 21 Nordeste 0 -- -- 27
2019-08-15 23:00:00 25.8 2 Sudoeste 8 Sudoeste 0 -- -- 25
2019-08-15 22:00:00 28.4 0 Calma 8 Noroeste 0 -- -- 21
2019-08-15 21:00:00 32.5 5 Noroeste 14 Noroeste 0 -- -- 17
2019-08-15 20:00:00 35.8 10 Noroeste 21 Oeste 0 -- -- 15
2019-08-15 19:00:00 35.5 11 Sudoeste 24 Oeste 0 -- -- 13
2019-08-15 18:00:00 36.9 8 Oeste 25 Oeste 0 -- -- 12
2019-08-15 17:00:00 37.8 9 Oeste 28 Sudoeste 0 -- -- 11
2019-08-15 16:00:00 36.5 10 Sudoeste 27 Sudoeste 0 -- -- 13
2019-08-15 15:00:00 37.6 10 Noroeste 25 Sudeste 0 -- -- 13
2019-08-15 14:00:00 35.8 6 Noroeste 17 Noroeste 0 -- -- 17
2019-08-15 13:00:00 35.7 4 Sudoeste 13 Noroeste 0 -- -- 20
2019-08-15 12:00:00 32.4 2 Oeste 13 Nordeste 0 -- -- 27
2019-08-15 11:00:00 29.5 6 Nordeste 17 Este 0 -- -- 36
2019-08-15 10:00:00 25 7 Este 17 Nordeste 0 -- -- 48
2019-08-15 09:00:00 21.9 7 Nordeste 14 Este 0 -- -- 58
2019-08-15 08:00:00 17.5 3 Este 8 Nordeste 0 -- -- 69
2019-08-15 07:00:00 16.9 6 Este 12 Nordeste 0 -- -- 71
2019-08-15 06:00:00 17 8 Nordeste 13 Nordeste 0 -- -- 68
2019-08-15 05:00:00 17.9 8 Nordeste 12 Este 0 -- -- 64
2019-08-15 04:00:00 18.3 8 Este 14 Este 0 -- -- 50
2019-08-15 03:00:00 18.8 7 Nordeste 12 Este 0 -- -- 33
2019-08-15 02:00:00 18.9 9 Sudeste 22 Este 0 -- -- 32
2019-08-15 01:00:00 20.3 3 Sudeste 7 Sudeste 0 -- -- 29
2019-08-15 00:00:00 22.4 0 Calma 0 Calma 0 -- -- 28
2019-08-14 23:00:00 25.1 0 Calma 8 Noroeste 0 -- -- 24
2019-08-14 22:00:00 27 4 Noroeste 7 Noroeste 0 -- -- 21
2019-08-14 21:00:00 30.8 4 Noroeste 14 Noroeste 0 -- -- 17
2019-08-14 20:00:00 33.1 9 Oeste 20 Noroeste 0 -- -- 16
2019-08-14 19:00:00 33.7 8 Sudoeste 31 Noroeste 0 -- -- 15
2019-08-14 18:00:00 34.8 13 Oeste 22 Noroeste 0 -- -- 15
2019-08-14 17:00:00 34.3 10 Oeste 25 Sudoeste 0 -- -- 15
2019-08-14 16:00:00 34.3 12 Oeste 27 Oeste 0 -- -- 16
2019-08-14 15:00:00 33.2 13 Oeste 28 Oeste 0 -- -- 17
2019-08-14 14:00:00 32.7 9 Oeste 22 Oeste 0 -- -- 17
2019-08-14 13:00:00 32.2 9 Oeste 17 Oeste 0 -- -- 23
2019-08-14 12:00:00 31.7 5 Noroeste 10 Noroeste 0 -- -- 29
2019-08-14 11:00:00 27.9 3 Nordeste 12 Nordeste 0 -- -- 42
2019-08-14 10:00:00 23.2 6 Nordeste 15 Este 0 -- -- 60
2019-08-14 09:00:00 18.8 10 Este 19 Este 0 -- -- 82
2019-08-14 08:00:00 16.9 8 Este 18 Este 0 -- -- 89
2019-08-14 07:00:00 15.6 5 Nordeste 14 Nordeste 0 -- -- 89
2019-08-14 06:00:00 15.6 7 Nordeste 14 Nordeste 0 -- -- 86
2019-08-14 05:00:00 16.4 8 Nordeste 14 Nordeste 0 -- -- 83
2019-08-14 04:00:00 17.2 10 Nordeste 17 Este 0 -- -- 79
2019-08-14 03:00:00 17.4 8 Nordeste 13 Nordeste 0 -- -- 74
2019-08-14 02:00:00 17.9 8 Este 15 Nordeste 0 -- -- 51
2019-08-14 01:00:00 20.6 5 Este 10 Este 0 -- -- 30
2019-08-14 00:00:00 22.9 2 Nordeste 10 Norte 0 -- -- 26
2019-08-13 23:00:00 24.4 5 Norte 10 Norte 0 -- -- 23
2019-08-13 22:00:00 25.6 6 Noroeste 13 Noroeste 0 -- -- 22
2019-08-13 21:00:00 28.2 5 Noroeste 19 Noroeste 0 -- -- 22
2019-08-13 20:00:00 30.8 9 Noroeste 23 Sudoeste 0 -- -- 20
2019-08-13 19:00:00 30.4 12 Oeste 27 Oeste 0 -- -- 19
2019-08-13 18:00:00 31.4 13 Oeste 30 Oeste 0 -- -- 20
2019-08-13 17:00:00 31 13 Oeste 28 Sudoeste 0 -- -- 20
2019-08-13 16:00:00 31 11 Oeste 33 Oeste 0 -- -- 21
2019-08-13 15:00:00 31.1 13 Oeste 26 Oeste 0 -- -- 24
2019-08-13 14:00:00 30.9 4 Oeste 28 Sur 0 -- -- 29
2019-08-13 13:00:00 28.6 5 Sudoeste 19 Este 0 -- -- 37
2019-08-13 12:00:00 26.4 10 Este 27 Este 0 -- -- 47
2019-08-13 11:00:00 23.5 13 Este 31 Este 0 -- -- 56
2019-08-13 10:00:00 22.1 14 Este 29 Este 0 -- -- 59
2019-08-13 09:00:00 20.3 11 Este 24 Sudeste 0 -- -- 66
2019-08-13 08:00:00 19 8 Este 23 Este 0 -- -- 71
2019-08-13 07:00:00 18.8 13 Nordeste 27 Este 0 -- -- 71
2019-08-13 06:00:00 19.4 12 Este 27 Este 0 -- -- 70
2019-08-13 05:00:00 19.9 14 Este 27 Este 0 -- -- 73
2019-08-13 04:00:00 19.9 12 Este 27 Este 0 -- -- 76
2019-08-13 03:00:00 19.6 10 Nordeste 21 Nordeste 0 -- -- 76
2019-08-13 02:00:00 19.7 9 Este 21 Este 0 -- -- 74
2019-08-13 01:00:00 19.9 7 Este 19 Este 0 -- -- 62
2019-08-13 00:00:00 20.4 9 Nordeste 22 Este 0 -- -- 24
2019-08-12 23:00:00 23 10 Noroeste 19 Noroeste 0 -- -- 20
2019-08-12 22:00:00 24.2 9 Noroeste 17 Oeste 0 -- -- 20
2019-08-12 21:00:00 26.6 11 Noroeste 22 Noroeste 0 -- -- 18
2019-08-12 20:00:00 29.4 15 Noroeste 27 Oeste 0 -- -- 14
2019-08-12 19:00:00 31.6 10 Noroeste 24 Oeste 0 -- -- 13
2019-08-12 18:00:00 31.2 9 Noroeste 24 Oeste 0 -- -- 13
2019-08-12 17:00:00 32.1 6 Noroeste 26 Sudoeste 0 -- -- 13
2019-08-12 16:00:00 31.5 9 Oeste 30 Noroeste 0 -- -- 15
2019-08-12 15:00:00 29.7 12 Oeste 44 Noroeste 0 -- -- 18
2019-08-12 14:00:00 31.7 12 Norte 25 Noroeste 0 -- -- 17
2019-08-12 13:00:00 30.8 10 Norte 33 Noroeste 0 -- -- 19
2019-08-12 12:00:00 28.5 10 Norte 21 Norte 0 -- -- 24
2019-08-12 11:00:00 25.1 8 Noroeste 17 Noroeste 0 -- -- 29
2019-08-12 10:00:00 19.3 9 Oeste 17 Sudoeste 0 -- -- 36
2019-08-12 09:00:00 15.4 12 Oeste 18 Sudoeste 0 -- -- 41
2019-08-12 08:00:00 14.9 12 Oeste 19 Oeste 0 -- -- 39
2019-08-12 07:00:00 15.7 12 Oeste 20 Oeste 0 -- -- 36
2019-08-12 06:00:00 16.7 13 Oeste 21 Sudoeste 0 -- -- 34
2019-08-12 05:00:00 17.6 12 Oeste 19 Sudoeste 0 -- -- 33
2019-08-12 04:00:00 18.2 10 Oeste 19 Sudoeste 0 -- -- 31
2019-08-12 03:00:00 19 9 Sudoeste 21 Oeste 0 -- -- 29
2019-08-12 02:00:00 19.6 12 Oeste 19 Oeste 0 -- -- 29
2019-08-12 01:00:00 19.3 6 Sudoeste 11 Oeste 0 -- -- 29
2019-08-12 00:00:00 21.3 8 Oeste 15 Oeste 0 -- -- 26
2019-08-11 23:00:00 23.1 11 Oeste 26 Oeste 0 -- -- 21
2019-08-11 22:00:00 24.6 11 Oeste 26 Oeste 0 -- -- 19
2019-08-11 21:00:00 27 17 Oeste 34 Oeste 0 -- -- 18
2019-08-11 20:00:00 29.1 22 Oeste 39 Oeste 0 -- -- 18
2019-08-11 19:00:00 29.5 23 Oeste 36 Oeste 0 -- -- 18
2019-08-11 18:00:00 30.1 25 Oeste 42 Sudoeste 0 -- -- 17
2019-08-11 17:00:00 31.2 21 Oeste 43 Oeste 0 -- -- 17
2019-08-11 16:00:00 31.3 24 Sudoeste 41 Oeste 0 -- -- 17
2019-08-11 15:00:00 30.7 23 Sudoeste 37 Sudoeste 0 -- -- 19
2019-08-11 14:00:00 29.6 14 Oeste 33 Sudoeste 0 -- -- 21
2019-08-11 13:00:00 29.3 18 Oeste 30 Oeste 0 -- -- 22
2019-08-11 12:00:00 28.5 9 Oeste 18 Oeste 0 -- -- 25
2019-08-11 11:00:00 24.7 8 Sudoeste 21 Sudoeste 0 -- -- 32
2019-08-11 10:00:00 23.4 11 Sudoeste 21 Sudoeste 0 -- -- 32
2019-08-11 09:00:00 21.3 9 Sudoeste 19 Oeste 0 -- -- 35
2019-08-11 08:00:00 19 10 Oeste 15 Oeste 0 -- -- 38
2019-08-11 07:00:00 17.9 8 Sudoeste 11 Sudoeste 0 -- -- 42
2019-08-11 06:00:00 18 5 Sudoeste 10 Oeste 0 -- -- 43
2019-08-11 05:00:00 18.9 3 Sudoeste 9 Sudoeste 0 -- -- 42
2019-08-11 04:00:00 20.1 4 Sudoeste 9 Sudoeste 0 -- -- 39
2019-08-11 03:00:00 20.3 5 Sudoeste 9 Sudoeste 0 -- -- 40
2019-08-11 02:00:00 21.9 5 Sudoeste 12 Oeste 0 -- -- 39
2019-08-11 01:00:00 24.3 7 Oeste 15 Oeste 0 -- -- 36
2019-08-11 00:00:00 24.9 6 Sudoeste 11 Sudoeste 0 -- -- 42
2019-08-10 23:00:00 26.9 3 Sudoeste 11 Sudoeste 0 -- -- 39
2019-08-10 22:00:00 29.4 7 Oeste 14 Oeste 0 -- -- 35
2019-08-10 21:00:00 32.1 8 Oeste 18 Oeste 0 -- -- 31
2019-08-10 20:00:00 34.8 10 Oeste 24 Noroeste 0 -- -- 27
2019-08-10 19:00:00 35.3 13 Oeste 26 Oeste 0 -- -- 26
2019-08-10 18:00:00 35.5 15 Oeste 38 Oeste 0 -- -- 25
2019-08-10 17:00:00 34.6 11 Oeste 31 Oeste 0 -- -- 29
2019-08-10 16:00:00 34.7 12 Oeste 28 Oeste 0 -- -- 30
2019-08-10 15:00:00 32.8 13 Sudoeste 26 Oeste 0 -- -- 34
2019-08-10 14:00:00 32.4 9 Oeste 22 Oeste 0 -- -- 36
2019-08-10 13:00:00 29.8 9 Oeste 20 Sudoeste 0 -- -- 42
2019-08-10 12:00:00 29.7 8 Noroeste 18 Oeste 0 -- -- 41
2019-08-10 11:00:00 27.4 5 Sudoeste 13 Oeste 0 -- -- 47
2019-08-10 10:00:00 25.8 3 Sudoeste 13 Oeste 0 -- -- 50
2019-08-10 09:00:00 23.8 5 Norte 9 Norte 0 -- -- 56
2019-08-10 08:00:00 19.6 5 Oeste 14 Oeste 0 -- -- 72
2019-08-10 07:00:00 19.6 8 Oeste 13 Oeste 0 -- -- 73
2019-08-10 06:00:00 18.6 4 Oeste 7 Oeste 0 -- -- 75
2019-08-10 05:00:00 19.1 3 Sur 6 Sudoeste 0 -- -- 73
2019-08-10 04:00:00 20.4 5 Sudoeste 10 Oeste 0 -- -- 69
2019-08-10 03:00:00 21.8 7 Oeste 14 Oeste 0 -- -- 67
2019-08-10 02:00:00 22.4 5 Sudoeste 16 Noroeste 0 -- -- 65
2019-08-10 01:00:00 24.5 9 Oeste 21 Noroeste 0 -- -- 59
2019-08-10 00:00:00 26.3 8 Noroeste 19 Noroeste 0 -- -- 47
2019-08-09 23:00:00 27.7 10 Noroeste 27 Noroeste 0 -- -- 40
2019-08-09 22:00:00 29.3 14 Noroeste 24 Oeste 0 -- -- 36
2019-08-09 21:00:00 31.4 15 Oeste 32 Oeste 0 -- -- 30
2019-08-09 20:00:00 33.1 21 Oeste 38 Oeste 0 -- -- 28
2019-08-09 19:00:00 33.9 22 Oeste 40 Oeste 0 -- -- 27
2019-08-09 18:00:00 34.5 22 Oeste 40 Sudoeste 0 -- -- 25
2019-08-09 17:00:00 34.3 21 Oeste 42 Sudoeste 0 -- -- 25
2019-08-09 16:00:00 33.9 22 Oeste 43 Oeste 0 -- -- 27
2019-08-09 15:00:00 32.9 22 Oeste 38 Oeste 0 -- -- 29
2019-08-09 14:00:00 31.7 22 Oeste 39 Oeste 0 -- -- 32
2019-08-09 13:00:00 30.2 21 Oeste 37 Oeste 0 -- -- 35
2019-08-09 12:00:00 29.6 17 Oeste 30 Oeste 0 -- -- 38
2019-08-09 11:00:00 28.1 16 Sudoeste 30 Sudoeste 0 -- -- 40
2019-08-09 10:00:00 26.4 17 Sudoeste 29 Sudoeste 0 -- -- 44
2019-08-09 09:00:00 23.9 14 Sudoeste 23 Sudoeste 0 -- -- 43
2019-08-09 08:00:00 20.3 7 Sudoeste 15 Sudoeste 0 -- -- 42
2019-08-09 07:00:00 20.6 8 Sudoeste 17 Sudoeste 0 -- -- 40
2019-08-09 06:00:00 20.7 8 Sudoeste 15 Sudoeste 0 -- -- 36
2019-08-09 05:00:00 22 9 Oeste 17 Sudoeste 0 -- -- 31
2019-08-09 04:00:00 22 7 Sudoeste 13 Sudoeste 0 -- -- 28
2019-08-09 03:00:00 21.3 2 Sur 9 Sudoeste 0 -- -- 29
2019-08-09 02:00:00 23 3 Sur 19 Sudoeste 0 -- -- 27
2019-08-09 01:00:00 25.5 9 Sudoeste 21 Sudoeste 0 -- -- 23
2019-08-09 00:00:00 26.9 12 Sudoeste 18 Sudoeste 0 -- -- 22
2019-08-08 23:00:00 27.5 5 Sur 13 Sur 0 -- -- 31
2019-08-08 22:00:00 29.5 4 Sudoeste 16 Oeste 0 -- -- 28
2019-08-08 21:00:00 32.6 9 Oeste 24 Oeste 0 -- -- 24
2019-08-08 20:00:00 35.1 15 Oeste 26 Sudoeste 0 -- -- 21
2019-08-08 19:00:00 35.4 17 Oeste 32 Sudoeste 0 -- -- 21
2019-08-08 18:00:00 36.2 15 Oeste 31 Oeste 0 -- -- 20
2019-08-08 17:00:00 36 15 Oeste 31 Oeste 0 -- -- 21
2019-08-08 16:00:00 34.7 15 Sudoeste 28 Sudoeste 0 -- -- 22
2019-08-08 15:00:00 33.9 13 Sudoeste 26 Oeste 0 -- -- 23
2019-08-08 14:00:00 32.4 10 Sudoeste 22 Sudoeste 0 -- -- 22
2019-08-08 13:00:00 32.8 6 Oeste 15 Oeste 0 -- -- 23
2019-08-08 12:00:00 29.2 7 Sudoeste 16 Sudoeste 0 -- -- 32
2019-08-08 11:00:00 28.3 5 Sudoeste 10 Oeste 0 -- -- 37
2019-08-08 10:00:00 28.5 3 Norte 6 Noroeste 0 -- -- 36
2019-08-08 09:00:00 23.2 0 Calma 3 Sudeste 0 -- -- 43
2019-08-08 08:00:00 17.1 0 Calma 5 Sur 0 -- -- 57
2019-08-08 07:00:00 16.6 0 Calma 8 Sur 0 -- -- 58
2019-08-08 06:00:00 17.3 4 Sur 8 Sur 0 -- -- 56
2019-08-08 05:00:00 18.4 4 Sudoeste 8 Sudoeste 0 -- -- 54
2019-08-08 04:00:00 19.5 3 Sudoeste 4 Sudoeste 0 -- -- 52
2019-08-08 03:00:00 19.9 4 Oeste 8 Sudoeste 0 -- -- 51
2019-08-08 02:00:00 21.6 3 Sudoeste 8 Sudoeste 0 -- -- 46
2019-08-08 01:00:00 22.8 4 Sudoeste 14 Oeste 0 -- -- 44
2019-08-08 00:00:00 24.8 9 Noroeste 15 Noroeste 0 -- -- 40
2019-08-07 23:00:00 25.8 6 Noroeste 15 Noroeste 0 -- -- 36
2019-08-07 22:00:00 26.3 9 Noroeste 24 Noroeste 0 -- -- 33
2019-08-07 21:00:00 27.6 17 Noroeste 31 Oeste 0 -- -- 29
2019-08-07 20:00:00 29.4 14 Oeste 28 Oeste 0 -- -- 28
2019-08-07 19:00:00 31.1 19 Oeste 33 Oeste 0 -- -- 26
2019-08-07 18:00:00 32 16 Oeste 39 Sudoeste 0 -- -- 22
2019-08-07 17:00:00 32.8 19 Sudoeste 35 Sudoeste 0 -- -- 21
2019-08-07 16:00:00 32 17 Oeste 40 Oeste 0 -- -- 21
2019-08-07 15:00:00 31.8 25 Oeste 42 Oeste 0 -- -- 18
2019-08-07 14:00:00 31.7 26 Oeste 44 Oeste 0 -- -- 17
2019-08-07 13:00:00 31.6 23 Sudoeste 40 Oeste 0 -- -- 23
2019-08-07 12:00:00 28.8 21 Oeste 36 Oeste 0 -- -- 31
2019-08-07 11:00:00 27.4 17 Sudoeste 30 Sudoeste 0 -- -- 32
2019-08-07 10:00:00 25.4 20 Sudoeste 30 Sudoeste 0 -- -- 37
2019-08-07 09:00:00 22.8 16 Sudoeste 24 Sudoeste 0 -- -- 38
2019-08-07 08:00:00 20.7 12 Sudoeste 19 Sudoeste 0 -- -- 35
2019-08-07 07:00:00 20 12 Sudoeste 18 Sudoeste 0 -- -- 31
2019-08-07 06:00:00 20.4 5 Sudoeste 12 Sudoeste 0 -- -- 28
2019-08-07 05:00:00 19.7 3 Sudoeste 6 Sudoeste 0 -- -- 26
2019-08-07 04:00:00 19.6 3 Sur 9 Sudoeste 0 -- -- 22
2019-08-07 03:00:00 20.3 2 Sudoeste 5 Sur 0 -- -- 20
2019-08-07 02:00:00 21.2 3 Sudoeste 5 Sudoeste 0 -- -- 21
2019-08-07 01:00:00 22.5 3 Sudoeste 10 Sudoeste 0 -- -- 21
2019-08-07 00:00:00 24.1 6 Sudoeste 16 Sudoeste 0 -- -- 19
2019-08-06 23:00:00 25.2 2 Sudoeste 8 Sudoeste 0 -- -- 19
2019-08-06 22:00:00 28.8 5 Sudoeste 14 Oeste 0 -- -- 17
2019-08-06 21:00:00 32.9 11 Oeste 24 Oeste 0 -- -- 13
2019-08-06 20:00:00 35.1 17 Oeste 25 Oeste 0 -- -- 12
2019-08-06 19:00:00 37.6 18 Oeste 32 Oeste 0 -- -- 11
2019-08-06 18:00:00 37.1 18 Oeste 33 Oeste 0 -- -- 11
2019-08-06 17:00:00 37.4 10 Oeste 35 Sudoeste 0 -- -- 12
2019-08-06 16:00:00 36.8 18 Oeste 36 Oeste 0 -- -- 12
2019-08-06 15:00:00 36.6 14 Oeste 33 Sudoeste 0 -- -- 14
2019-08-06 14:00:00 35 12 Sudoeste 33 Oeste 0 -- -- 15
2019-08-06 13:00:00 33.4 14 Sudoeste 31 Oeste 0 -- -- 18
2019-08-06 12:00:00 33.3 12 Oeste 21 Oeste 0 -- -- 18
2019-08-06 11:00:00 30.5 12 Oeste 20 Sudoeste 0 -- -- 18
2019-08-06 10:00:00 28 8 Sudoeste 13 Sudoeste 0 -- -- 24
2019-08-06 09:00:00 25.5 0 Calma 4 Nordeste 0 -- -- 26
2019-08-06 08:00:00 18.9 2 Sudoeste 9 Sudeste 0 -- -- 35
2019-08-06 07:00:00 18.3 2 Sur 9 Sudoeste 0 -- -- 34
2019-08-06 06:00:00 20 3 Sur 18 Sur 0 -- -- 30
2019-08-06 05:00:00 19.2 3 Sudoeste 7 Sudoeste 0 -- -- 32
2019-08-06 04:00:00 20.1 4 Sudoeste 8 Oeste 0 -- -- 29
2019-08-06 03:00:00 21.1 3 Sudoeste 14 Sudoeste 0 -- -- 27
2019-08-06 02:00:00 23.7 3 Sudeste 9 Nordeste 0 -- -- 24
2019-08-06 01:00:00 24 6 Oeste 10 Oeste 0 -- -- 24
2019-08-06 00:00:00 25 6 Oeste 12 Sudoeste 0 -- -- 26
2019-08-05 23:00:00 27.4 4 Sur 6 Sur 0 -- -- 23
2019-08-05 22:00:00 29.8 0 Calma 10 Oeste 0 -- -- 19
2019-08-05 21:00:00 33.7 7 Oeste 21 Noroeste 0 -- -- 16
2019-08-05 20:00:00 36.1 11 Oeste 25 Oeste 0 -- -- 14
2019-08-05 19:00:00 37.7 13 Oeste 26 Oeste 0 -- -- 13
2019-08-05 18:00:00 38.1 10 Oeste 28 Oeste 0 -- -- 14
2019-08-05 17:00:00 38.4 11 Oeste 27 Oeste 0 -- -- 14
2019-08-05 16:00:00 37.6 9 Oeste 24 Oeste 0 -- -- 15
2019-08-05 15:00:00 36.8 10 Oeste 24 Oeste 0 -- -- 16
2019-08-05 14:00:00 36.4 9 Oeste 23 Oeste 0 -- -- 16
2019-08-05 13:00:00 34.4 8 Oeste 18 Sudoeste 0 -- -- 18
2019-08-05 12:00:00 34.8 5 Noroeste 14 Noroeste 0 -- -- 18
2019-08-05 11:00:00 30.2 8 Oeste 13 Sudoeste 0 -- -- 24
2019-08-05 10:00:00 29.4 4 Oeste 11 Oeste 0 -- -- 24
2019-08-05 09:00:00 24.7 2 Nordeste 8 Sudeste 0 -- -- 29
2019-08-05 08:00:00 18 0 Calma 5 Este 0 -- -- 40
2019-08-05 07:00:00 16.9 4 Sudeste 10 Sudeste 0 -- -- 40
2019-08-05 06:00:00 17.9 0 Calma 9 Sur 0 -- -- 38
2019-08-05 05:00:00 19.1 2 Nordeste 5 Nordeste 0 -- -- 33
2019-08-05 04:00:00 19.5 0 Calma 5 Sur 0 -- -- 32
2019-08-05 03:00:00 21.4 2 Norte 8 Nordeste 0 -- -- 30
2019-08-05 02:00:00 22.8 2 Este 12 Sudoeste 0 -- -- 30
2019-08-05 01:00:00 23.3 5 Oeste 10 Sudoeste 0 -- -- 31
2019-08-05 00:00:00 24.7 5 Sudoeste 9 Sudeste 0 -- -- 30
2019-08-04 23:00:00 27.9 4 Sur 7 Sur 0 -- -- 26
2019-08-04 22:00:00 30.4 3 Noroeste 14 Noroeste 0 -- -- 23
2019-08-04 21:00:00 33.4 11 Noroeste 21 Oeste 0 -- -- 20
2019-08-04 20:00:00 36.1 14 Noroeste 24 Oeste 0 -- -- 17
2019-08-04 19:00:00 37.1 13 Oeste 28 Oeste 0 -- -- 17
2019-08-04 18:00:00 36.9 17 Oeste 31 Oeste 0 -- -- 17
2019-08-04 17:00:00 38 11 Noroeste 29 Oeste 0 -- -- 17
2019-08-04 16:00:00 36.3 12 Sudoeste 30 Oeste 0 -- -- 17
2019-08-04 15:00:00 36.7 13 Oeste 28 Oeste 0 -- -- 16
2019-08-04 14:00:00 36.2 11 Oeste 22 Oeste 0 -- -- 16
2019-08-04 13:00:00 34.8 7 Oeste 16 Oeste 0 -- -- 17
2019-08-04 12:00:00 33.2 6 Sudoeste 17 Oeste 0 -- -- 18
2019-08-04 11:00:00 30.5 6 Sudoeste 15 Sudoeste 0 -- -- 21
2019-08-04 10:00:00 28.1 4 Sur 9 Sudoeste 0 -- -- 26
2019-08-04 09:00:00 24.1 3 Nordeste 9 Nordeste 0 -- -- 35
2019-08-04 08:00:00 19.3 5 Nordeste 7 Nordeste 0 -- -- 45
2019-08-04 07:00:00 19 0 Calma 5 Sur 0 -- -- 40
2019-08-04 06:00:00 20.4 3 Sur 9 Sudoeste 0 -- -- 37
2019-08-04 05:00:00 20.9 0 Calma 14 Sudoeste 0 -- -- 34
2019-08-04 04:00:00 23 9 Sudoeste 22 Sudoeste 0 -- -- 30
2019-08-04 03:00:00 24 10 Sudoeste 16 Sudoeste 0 -- -- 29
2019-08-04 02:00:00 24.4 11 Sudoeste 16 Sudoeste 0 -- -- 28
2019-08-04 01:00:00 25.7 7 Sudoeste 23 Oeste 0 -- -- 30
2019-08-04 00:00:00 26.1 3 Sur 12 Sur 0 -- -- 41
2019-08-03 23:00:00 28.3 4 Sudeste 12 Sudeste 0 -- -- 34
2019-08-03 22:00:00 30.6 6 Sudeste 12 Sudeste 0 -- -- 19
2019-08-03 21:00:00 33.8 6 Oeste 17 Oeste 0 -- -- 16
2019-08-03 20:00:00 36.9 10 Oeste 22 Oeste 0 -- -- 14
2019-08-03 19:00:00 37.3 12 Oeste 27 Oeste 0 -- -- 14
2019-08-03 18:00:00 39 8 Oeste 24 Oeste 0 -- -- 13
2019-08-03 17:00:00 37.3 12 Sudoeste 24 Oeste 0 -- -- 14
2019-08-03 16:00:00 39 7 Oeste 23 Sudoeste 0 -- -- 12
2019-08-03 15:00:00 36.4 8 Sudoeste 19 Oeste 0 -- -- 14
2019-08-03 14:00:00 35.9 6 Sur 16 Sudoeste 0 -- -- 13
2019-08-03 13:00:00 34.3 5 Sudeste 15 Oeste 0 -- -- 16
2019-08-03 12:00:00 32.6 6 Oeste 14 Sudoeste 0 -- -- 20
2019-08-03 11:00:00 29.3 5 Sudeste 15 Este 0 -- -- 32
2019-08-03 10:00:00 24.3 9 Este 19 Este 0 -- -- 55
2019-08-03 09:00:00 21.2 10 Nordeste 22 Nordeste 0 -- -- 63
2019-08-03 08:00:00 18.5 9 Nordeste 17 Nordeste 0 -- -- 68
2019-08-03 07:00:00 18.5 8 Este 18 Este 0 -- -- 73
2019-08-03 06:00:00 19.3 7 Este 20 Este 0 -- -- 70
2019-08-03 05:00:00 20 8 Este 21 Nordeste 0 -- -- 67
2019-08-03 04:00:00 20.9 10 Este 26 Este 0 -- -- 60
2019-08-03 03:00:00 21.8 10 Este 31 Este 0 -- -- 58
2019-08-03 02:00:00 23.2 12 Este 28 Nordeste 0 -- -- 54
2019-08-03 01:00:00 25.4 9 Este 24 Este 0 -- -- 52
2019-08-03 00:00:00 25.5 11 Nordeste 23 Nordeste 0 -- -- 44
2019-08-02 23:00:00 26.6 3 Sudoeste 15 Este 0 -- -- 21
2019-08-02 22:00:00 30.1 3 Nordeste 10 Noroeste 0 -- -- 18
2019-08-02 21:00:00 33.4 6 Noroeste 20 Oeste 0 -- -- 14
2019-08-02 20:00:00 36.5 12 Oeste 21 Noroeste 0 -- -- 13
2019-08-02 19:00:00 37.8 10 Noroeste 23 Noroeste 0 -- -- 13
2019-08-02 18:00:00 38 8 Oeste 25 Oeste 0 -- -- 13
2019-08-02 17:00:00 37 12 Oeste 39 Noroeste 0 -- -- 14
2019-08-02 16:00:00 37.6 9 Oeste 21 Oeste 0 -- -- 14
2019-08-02 15:00:00 38.1 7 Noroeste 21 Noroeste 0 -- -- 14
2019-08-02 14:00:00 35.9 6 Oeste 17 Sudoeste 0 -- -- 15
2019-08-02 13:00:00 34.4 6 Oeste 13 Sudoeste 0 -- -- 17
2019-08-02 12:00:00 32.5 6 Oeste 13 Oeste 0 -- -- 20
2019-08-02 11:00:00 29.2 5 Oeste 14 Oeste 0 -- -- 23
2019-08-02 10:00:00 28.8 3 Noroeste 8 Este 0 -- -- 30
2019-08-02 09:00:00 22.5 4 Este 8 Este 0 -- -- 57
2019-08-02 08:00:00 17.1 4 Sudeste 8 Este 0 -- -- 71
2019-08-02 07:00:00 17.1 5 Este 9 Sudeste 0 -- -- 68
2019-08-02 06:00:00 18.4 3 Este 12 Nordeste 0 -- -- 36
2019-08-02 05:00:00 18 3 Sudoeste 5 Sudoeste 0 -- -- 37
2019-08-02 04:00:00 18.7 0 Calma 7 Sur 0 -- -- 36
2019-08-02 03:00:00 20.2 2 Sur 4 Sur 0 -- -- 33
2019-08-02 02:00:00 21 0 Calma 6 Oeste 0 -- -- 32
2019-08-02 01:00:00 22.9 5 Sudoeste 8 Oeste 0 -- -- 29
2019-08-02 00:00:00 24.2 4 Oeste 9 Sudoeste 0 -- -- 28
2019-08-01 23:00:00 26.7 5 Sudoeste 10 Oeste 0 -- -- 25
2019-08-01 22:00:00 29.3 9 Oeste 19 Oeste 0 -- -- 21
2019-08-01 21:00:00 32 12 Oeste 25 Oeste 0 -- -- 20
2019-08-01 20:00:00 33.9 17 Oeste 29 Sudoeste 0 -- -- 19
2019-08-01 19:00:00 34.6 15 Oeste 33 Oeste 0 -- -- 18
2019-08-01 18:00:00 35 18 Oeste 31 Oeste 0 -- -- 19
2019-08-01 17:00:00 36.2 12 Oeste 27 Oeste 0 -- -- 18
2019-08-01 16:00:00 35.3 12 Oeste 27 Oeste 0 -- -- 20
2019-08-01 15:00:00 34.9 12 Oeste 25 Oeste 0 -- -- 22
2019-08-01 14:00:00 33.6 10 Oeste 23 Oeste 0 -- -- 25
2019-08-01 13:00:00 32.1 9 Sudoeste 19 Sudoeste 0 -- -- 27
2019-08-01 12:00:00 30.6 9 Oeste 20 Sudoeste 0 -- -- 32
2019-08-01 11:00:00 26.4 8 Este 18 Nordeste 0 -- -- 48
2019-08-01 10:00:00 23.1 12 Este 23 Nordeste 0 -- -- 60
2019-08-01 09:00:00 19.7 9 Este 24 Este 0 -- -- 71
2019-08-01 08:00:00 17.5 9 Este 25 Nordeste 0 -- -- 80
2019-08-01 07:00:00 17.1 8 Este 22 Sudeste 0 -- -- 79
2019-08-01 06:00:00 17.4 9 Este 27 Sudeste 0 -- -- 77
2019-08-01 05:00:00 18.2 12 Este 26 Este 0 -- -- 74
2019-08-01 04:00:00 18.7 11 Este 33 Este 0 -- -- 73
2019-08-01 03:00:00 19.2 14 Este 31 Sudeste 0 -- -- 70
2019-08-01 02:00:00 20 13 Este 29 Este 0 -- -- 67
2019-08-01 01:00:00 20.6 15 Este 44 Este 0 -- -- 66
2019-08-01 00:00:00 21.6 15 Este 41 Nordeste 0 -- -- 64
2019-07-31 23:00:00 22.5 20 Este 48 Nordeste 0 -- -- 63
2019-07-31 22:00:00 23.9 20 Este 42 Este 0 -- -- 59
2019-07-31 21:00:00 26.6 17 Este 44 Este 0 -- -- 51
2019-07-31 20:00:00 29.1 23 Este 44 Este 0 -- -- 37
2019-07-31 19:00:00 30.7 19 Este 44 Sudeste 0 -- -- 35
2019-07-31 18:00:00 30.6 24 Este 50 Sudeste 0 -- -- 35
2019-07-31 17:00:00 30.7 21 Este 51 Sudeste 0 -- -- 35
2019-07-31 16:00:00 30.5 22 Este 46 Sudeste 0 -- -- 35
2019-07-31 15:00:00 30.2 22 Este 46 Este 0 -- -- 33
2019-07-31 14:00:00 28.6 23 Este 50 Sudeste 0 -- -- 37
2019-07-31 13:00:00 27.6 22 Este 44 Sudeste 0 -- -- 39
2019-07-31 12:00:00 25.3 28 Este 48 Este 0 -- -- 47
2019-07-31 11:00:00 24.3 20 Este 51 Sudeste 0 -- -- 48
2019-07-31 10:00:00 22.4 18 Este 39 Este 0 -- -- 59
2019-07-31 09:00:00 20.8 19 Este 40 Este 0 -- -- 71
2019-07-31 08:00:00 19.4 14 Este 35 Este 0 -- -- 75
2019-07-31 07:00:00 19.3 14 Este 31 Este 0 -- -- 77
2019-07-31 06:00:00 19.9 13 Este 41 Nordeste 0 -- -- 75
2019-07-31 05:00:00 20 16 Este 42 Este 0 -- -- 74
2019-07-31 04:00:00 20.3 19 Este 37 Este 0 -- -- 72
2019-07-31 03:00:00 21.2 19 Este 43 Este 0 -- -- 67
2019-07-31 02:00:00 21.2 22 Este 39 Nordeste 0 -- -- 70
2019-07-31 01:00:00 21.8 19 Este 41 Este 0 -- -- 67
2019-07-31 00:00:00 24.2 17 Este 33 Este 0 -- -- 58
2019-07-30 23:00:00 26.4 12 Este 26 Este 0 -- -- 41
2019-07-30 22:00:00 28.3 5 Norte 13 Noroeste 0 -- -- 20
2019-07-30 21:00:00 31.1 8 Oeste 15 Oeste 0 -- -- 18
2019-07-30 20:00:00 33.9 8 Oeste 18 Oeste 0 -- -- 16
2019-07-30 19:00:00 33.9 9 Oeste 20 Oeste 0 -- -- 17
2019-07-30 18:00:00 36.6 9 Noroeste 20 Noroeste 0 -- -- 16
2019-07-30 17:00:00 33.8 10 Sur 24 Noroeste 0 -- -- 18
2019-07-30 16:00:00 33.2 14 Oeste 24 Oeste 0 -- -- 19
2019-07-30 15:00:00 33.2 15 Oeste 25 Oeste 0 -- -- 20
2019-07-30 14:00:00 32.3 11 Oeste 22 Oeste 0 -- -- 20
2019-07-30 13:00:00 31.7 7 Noroeste 18 Oeste 0 -- -- 20
2019-07-30 12:00:00 27.6 9 Oeste 18 Sudoeste 0 -- -- 24
2019-07-30 11:00:00 24.6 9 Oeste 17 Oeste 0 -- -- 28
2019-07-30 10:00:00 22.4 11 Oeste 14 Sudoeste 0 -- -- 31
2019-07-30 09:00:00 19.7 10 Sudoeste 14 Sudoeste 0 -- -- 35
2019-07-30 08:00:00 16.1 6 Sudoeste 11 Sudoeste 0 -- -- 41
2019-07-30 07:00:00 16.4 6 Sudoeste 14 Sudoeste 0 -- -- 40
2019-07-30 06:00:00 16.8 4 Sudoeste 12 Sudoeste 0 -- -- 39
2019-07-30 05:00:00 16.9 6 Sudoeste 9 Oeste 0 -- -- 39
2019-07-30 04:00:00 18.6 3 Sudoeste 7 Oeste 0 -- -- 36
2019-07-30 03:00:00 19.2 3 Sudoeste 9 Sudoeste 0 -- -- 34
2019-07-30 02:00:00 20.9 4 Sudoeste 13 Sudoeste 0 -- -- 30
2019-07-30 01:00:00 21.9 7 Oeste 15 Oeste 0 -- -- 27
2019-07-30 00:00:00 23.7 12 Oeste 19 Sudoeste 0 -- -- 23
2019-07-29 23:00:00 25.3 10 Oeste 17 Oeste 0 -- -- 22
2019-07-29 22:00:00 27 7 Oeste 22 Oeste 0 -- -- 20
2019-07-29 21:00:00 30.2 17 Oeste 29 Oeste 0 -- -- 16
2019-07-29 20:00:00 32.3 21 Oeste 37 Sudoeste 0 -- -- 13
2019-07-29 19:00:00 33 23 Oeste 40 Sudoeste 0 -- -- 17
2019-07-29 18:00:00 33.5 19 Oeste 35 Oeste 0 -- -- 20
2019-07-29 17:00:00 32.9 23 Oeste 41 Oeste 0 -- -- 22
2019-07-29 16:00:00 33 21 Oeste 35 Oeste 0 -- -- 22
2019-07-29 15:00:00 32.2 19 Sudoeste 36 Sudoeste 0 -- -- 24
2019-07-29 14:00:00 31.3 18 Oeste 36 Oeste 0 -- -- 27
2019-07-29 13:00:00 30.9 13 Oeste 28 Oeste 0 -- -- 28
2019-07-29 12:00:00 30.6 10 Oeste 24 Oeste 0 -- -- 29
2019-07-29 11:00:00 27.8 11 Oeste 19 Oeste 0 -- -- 33
2019-07-29 10:00:00 25.2 12 Sudoeste 21 Oeste 0 -- -- 39
2019-07-29 09:00:00 24.3 2 Sur 6 Nordeste 0 -- -- 42
2019-07-29 08:00:00 17.9 0 Calma 5 Nordeste 0 -- -- 50
2019-07-29 07:00:00 16.5 0 Calma 8 Este 0 -- -- 52
2019-07-29 06:00:00 17.1 2 Este 6 Este 0 -- -- 51
2019-07-29 05:00:00 18 2 Este 13 Sudoeste 0 -- -- 48
2019-07-29 04:00:00 18.1 5 Sur 19 Oeste 0 -- -- 48
2019-07-29 03:00:00 18.7 5 Sudeste 9 Sudeste 0 -- -- 44
2019-07-29 02:00:00 18.9 4 Sur 10 Este 0 -- -- 41
2019-07-29 01:00:00 19.8 6 Sudeste 11 Sudeste 0 -- -- 39
2019-07-29 00:00:00 21.5 9 Sudeste 12 Sudeste 0 -- -- 36
2019-07-28 23:00:00 24 2 Este 4 Norte 0 -- -- 32
2019-07-28 22:00:00 26 3 Norte 16 Oeste 0 -- -- 29
2019-07-28 21:00:00 28.2 7 Noroeste 27 Oeste 0 -- -- 26
2019-07-28 20:00:00 30.3 14 Oeste 27 Oeste 0 -- -- 24
2019-07-28 19:00:00 30.9 12 Oeste 30 Oeste 0 -- -- 24
2019-07-28 18:00:00 30.6 14 Oeste 22 Oeste 0 -- -- 24
2019-07-28 17:00:00 32.4 7 Noroeste 24 Oeste 0 -- -- 22
2019-07-28 16:00:00 29.7 14 Oeste 24 Oeste 0 -- -- 25
2019-07-28 15:00:00 29.1 12 Oeste 27 Oeste 0 -- -- 28
2019-07-28 14:00:00 29.4 8 Noroeste 22 Oeste 0 -- -- 27
2019-07-28 13:00:00 27.7 8 Sudoeste 20 Oeste 0 -- -- 30
2019-07-28 12:00:00 27.9 5 Noroeste 15 Noroeste 0 -- -- 30
2019-07-28 11:00:00 25.5 5 Nordeste 12 Norte 0 -- -- 33
2019-07-28 10:00:00 24.4 3 Nordeste 8 Nordeste 0 -- -- 38
2019-07-28 09:00:00 21.7 3 Noroeste 9 Noroeste 0 -- -- 46
2019-07-28 08:00:00 16.4 0 Calma 5 Oeste 0 -- -- 73
2019-07-28 07:00:00 14.7 3 Sudoeste 8 Oeste 0 -- -- 75
2019-07-28 06:00:00 15.7 4 Oeste 8 Oeste 0 -- -- 72
2019-07-28 05:00:00 16.5 4 Oeste 9 Oeste 0 -- -- 69
2019-07-28 04:00:00 16.9 6 Sudoeste 13 Oeste 0 -- -- 67
2019-07-28 03:00:00 18.2 8 Oeste 14 Oeste 0 -- -- 63
2019-07-28 02:00:00 19 10 Sudoeste 18 Oeste 0 -- -- 59
2019-07-28 01:00:00 19.7 8 Sudoeste 18 Oeste 0 -- -- 56
2019-07-28 00:00:00 20.8 13 Sudoeste 31 Sudoeste 0 -- -- 53
2019-07-27 23:00:00 21.2 12 Sudoeste 28 Oeste 0 -- -- 53
2019-07-26 12:00:00 -- -- -- -- -- -- -- -- --
2019-07-26 11:00:00 27.8 13 Oeste 25 Sudoeste 0 -- -- 36
2019-07-26 10:00:00 24.4 12 Sudoeste 21 Sudoeste 0 -- -- 40
2019-07-26 09:00:00 24.2 13 Sudoeste 20 Sudoeste 0 -- -- 38
2019-07-26 08:00:00 22.1 8 Sudoeste 14 Sudoeste 0 -- -- 42
2019-07-26 07:00:00 22 6 Sudoeste 19 Sudoeste 0 -- -- 42
2019-07-26 06:00:00 22.9 12 Sudoeste 19 Sudoeste 0 -- -- 40
2019-07-26 05:00:00 23.2 10 Sudoeste 22 Sudoeste 0 -- -- 36
2019-07-26 04:00:00 23.8 13 Sudoeste 25 Sudoeste 0 -- -- 28
2019-07-26 03:00:00 24.8 13 Sudoeste 24 Sudoeste 0 -- -- 28
2019-07-26 02:00:00 25.6 14 Sudoeste 21 Sur 0 -- -- 26
2019-07-26 01:00:00 26.3 10 Sudoeste 18 Sur 0 -- -- 28
2019-07-26 00:00:00 27.5 8 Sudoeste 20 Oeste 0 -- -- 24
2019-07-25 23:00:00 28.2 5 Sur 16 Sudeste 0 -- -- 29
2019-07-25 22:00:00 30.4 6 Este 27 Sudeste 0 -- -- 27
2019-07-25 21:00:00 32.6 14 Este 30 Este 0 -- -- 23
2019-07-25 20:00:00 35.7 6 Sudeste 33 Nordeste 0 -- -- 19
2019-07-25 19:00:00 34.8 17 Este 36 Nordeste 0 -- -- 18
2019-07-25 18:00:00 36.1 15 Este 31 Sudeste 0 -- -- 17
2019-07-25 17:00:00 37 14 Este 25 Sudeste 0 -- -- 16
2019-07-25 16:00:00 39.4 6 Nordeste 23 Nordeste 0 -- -- 17
2019-07-25 15:00:00 35 13 Este 23 Noroeste 0 -- -- 21
2019-07-25 14:00:00 37 11 Nordeste 22 Nordeste 0 -- -- 22
2019-07-25 13:00:00 35.4 7 Sudeste 15 Nordeste 0 -- -- 24
2019-07-25 12:00:00 34.9 6 Nordeste 13 Nordeste 0 -- -- 25
2019-07-25 11:00:00 34.4 3 Norte 10 Nordeste 0 -- -- 27
2019-07-25 10:00:00 28.5 8 Nordeste 13 Nordeste 0 -- -- 34
2019-07-25 09:00:00 23.7 8 Nordeste 13 Nordeste 0 -- -- 41
2019-07-25 08:00:00 20 6 Nordeste 14 Este 0 -- -- 48
2019-07-25 07:00:00 19.4 6 Este 13 Este 0 -- -- 48
2019-07-25 06:00:00 20 7 Nordeste 17 Este 0 -- -- 45
2019-07-25 05:00:00 21.1 6 Nordeste 21 Este 0 -- -- 42
2019-07-25 04:00:00 22.1 11 Nordeste 19 Nordeste 0 -- -- 39
2019-07-25 03:00:00 23.7 6 Este 17 Sudeste 0 -- -- 37
2019-07-25 02:00:00 24.2 8 Este 20 Este 0 -- -- 35
2019-07-25 01:00:00 25 8 Este 26 Este 0 -- -- 33
2019-07-25 00:00:00 26.1 14 Este 24 Este 0 -- -- 31
2019-07-24 23:00:00 27.7 7 Este 19 Este 0 -- -- 28
2019-07-24 22:00:00 30 8 Este 33 Este 0 -- -- 24
2019-07-24 21:00:00 32.7 22 Sudeste 39 Este 0 -- -- 20
2019-07-24 20:00:00 34.1 22 Este 40 Este 0 -- -- 18
2019-07-24 19:00:00 35.8 23 Este 44 Sudeste 0 -- -- 16
2019-07-24 18:00:00 36.7 23 Este 46 Sudeste 0 -- -- 16
2019-07-24 17:00:00 35.8 22 Este 45 Este 0 -- -- 16
2019-07-24 16:00:00 36.8 20 Este 42 Sudeste 0 -- -- 16
2019-07-24 15:00:00 36.3 17 Este 36 Este 0 -- -- 16
2019-07-24 14:00:00 35.3 22 Sudeste 39 Este 0 -- -- 17
2019-07-24 13:00:00 33.7 20 Sudeste 38 Sudeste 0 -- -- 19
2019-07-24 12:00:00 32.1 19 Este 40 Este 0 -- -- 20
2019-07-24 11:00:00 30.3 14 Este 29 Este 0 -- -- 21
2019-07-24 10:00:00 27.1 9 Este 23 Este 0 -- -- 29
2019-07-24 09:00:00 24.2 11 Este 18 Nordeste 0 -- -- 33
2019-07-24 08:00:00 21 6 Este 17 Este 0 -- -- 39
2019-07-24 07:00:00 20.1 5 Este 13 Sudeste 0 -- -- 41
2019-07-24 06:00:00 19.7 6 Nordeste 13 Nordeste 0 -- -- 46
2019-07-24 05:00:00 20.8 5 Este 15 Este 0 -- -- 43
2019-07-24 04:00:00 22.3 7 Nordeste 23 Nordeste 0 -- -- 40
2019-07-24 03:00:00 23.8 9 Nordeste 16 Nordeste 0 -- -- 31
2019-07-24 02:00:00 24.6 3 Nordeste 21 Oeste 0 -- -- 30
2019-07-24 01:00:00 25.1 7 Este 20 Este 0 -- -- 29
2019-07-24 00:00:00 25.7 6 Este 24 Nordeste 0 -- -- 29
2019-07-23 23:00:00 25.7 6 Nordeste 22 Nordeste 0 -- -- 38
2019-07-23 22:00:00 28.5 12 Norte 33 Sudoeste 0 -- -- 31
2019-07-23 21:00:00 32.2 14 Sur 50 Sudeste 0 -- -- 18
2019-07-23 20:00:00 33.4 31 Sudeste 50 Sudeste 0 -- -- 17
2019-07-23 19:00:00 34.5 24 Sudeste 45 Este 0 -- -- 15
2019-07-23 18:00:00 36.5 22 Sudeste 44 Este 0 -- -- 14
2019-07-23 17:00:00 36.8 23 Sudeste 42 Sudeste 0 -- -- 14
2019-07-23 16:00:00 36.6 19 Este 46 Este 0 -- -- 15
2019-07-23 15:00:00 35.6 24 Este 41 Sudeste 0 -- -- 16
2019-07-23 14:00:00 34.9 18 Este 38 Sudeste 0 -- -- 16
2019-07-23 13:00:00 33.2 16 Este 37 Este 0 -- -- 17
2019-07-23 12:00:00 30.5 19 Este 35 Sudeste 0 -- -- 20
2019-07-23 11:00:00 29.3 12 Este 27 Nordeste 0 -- -- 20
2019-07-23 10:00:00 26.1 11 Este 26 Este 0 -- -- 34
2019-07-23 09:00:00 22.5 9 Este 24 Este 0 -- -- 45
2019-07-23 08:00:00 20.3 15 Este 23 Este 0 -- -- 52
2019-07-23 07:00:00 19.4 10 Nordeste 17 Nordeste 0 -- -- 53
2019-07-23 06:00:00 19.9 13 Nordeste 22 Nordeste 0 -- -- 51
2019-07-23 05:00:00 20.4 12 Nordeste 19 Nordeste 0 -- -- 49
2019-07-23 04:00:00 21.4 9 Este 26 Nordeste 0 -- -- 47
2019-07-23 03:00:00 22 11 Este 27 Este 0 -- -- 47
2019-07-23 02:00:00 22.8 11 Este 26 Nordeste 0 -- -- 45
2019-07-23 01:00:00 23.9 11 Este 30 Este 0 -- -- 40
2019-07-23 00:00:00 26.5 13 Este 33 Este 0 -- -- 23
2019-07-22 23:00:00 28.2 15 Este 44 Sudeste 0 -- -- 20
2019-07-22 22:00:00 29.8 23 Este 46 Este 0 -- -- 17
2019-07-22 21:00:00 31.8 28 Este 54 Sudeste 0 -- -- 14
2019-07-22 20:00:00 33.7 28 Este 53 Este 0 -- -- 13
2019-07-22 19:00:00 34.8 29 Este 54 Este 0 -- -- 13
2019-07-22 18:00:00 35.2 32 Sudeste 52 Sudeste 0 -- -- 16
2019-07-22 17:00:00 35.3 30 Sudeste 54 Este 0 -- -- 18
2019-07-22 16:00:00 34.9 26 Sudeste 50 Este 0 -- -- 19
2019-07-22 15:00:00 34.3 20 Este 42 Sudeste 0 -- -- 21
2019-07-22 14:00:00 32.6 23 Este 44 Este 0 -- -- 22
2019-07-22 13:00:00 31.2 22 Este 41 Sudeste 0 -- -- 24
2019-07-22 12:00:00 29.9 18 Este 36 Sudeste 0 -- -- 30
2019-07-22 11:00:00 28 16 Este 32 Nordeste 0 -- -- 35
2019-07-22 10:00:00 25.5 13 Este 31 Este 0 -- -- 43
2019-07-22 09:00:00 22.7 13 Este 27 Este 0 -- -- 56
2019-07-22 08:00:00 20.1 10 Este 27 Este 0 -- -- 62
2019-07-22 07:00:00 19.4 10 Este 26 Este 0 -- -- 64
2019-07-22 06:00:00 20 14 Este 27 Este 0 -- -- 59
2019-07-22 05:00:00 20.6 13 Nordeste 23 Este 0 -- -- 52
2019-07-22 04:00:00 21.1 13 Este 26 Este 0 -- -- 48
2019-07-22 03:00:00 22.1 15 Este 34 Este 0 -- -- 46
2019-07-22 02:00:00 22.9 17 Este 33 Este 0 -- -- 48
2019-07-22 01:00:00 24.1 18 Este 35 Este 0 -- -- 45
2019-07-22 00:00:00 25.3 16 Este 30 Este 0 -- -- 41
2019-07-21 23:00:00 26.8 14 Este 36 Este 0 -- -- 36
2019-07-21 22:00:00 28.4 19 Este 42 Este 0 -- -- 34
2019-07-21 21:00:00 30.5 22 Este 47 Este 0 -- -- 33
2019-07-21 20:00:00 34 18 Este 38 Este 0 -- -- 23
2019-07-21 19:00:00 34.7 18 Este 38 Este 0 -- -- 23
2019-07-21 18:00:00 35.2 17 Este 40 Sudeste 0 -- -- 24
2019-07-21 17:00:00 35.9 18 Este 43 Este 0 -- -- 23
2019-07-21 16:00:00 35.9 16 Este 40 Este 0 -- -- 23
2019-07-21 15:00:00 35 15 Este 45 Sudeste 0 -- -- 23
2019-07-21 14:00:00 33.4 20 Este 41 Este 0 -- -- 24
2019-07-21 13:00:00 32.4 19 Este 39 Sudeste 0 -- -- 25
2019-07-21 12:00:00 31.2 17 Este 33 Sudeste 0 -- -- 27
2019-07-21 11:00:00 28.4 18 Este 32 Este 0 -- -- 36
2019-07-21 10:00:00 25.1 14 Este 29 Este 0 -- -- 48
2019-07-21 09:00:00 22.8 10 Este 23 Sudeste 0 -- -- 59
2019-07-21 08:00:00 20.7 8 Este 19 Este 0 -- -- 70
2019-07-21 07:00:00 20 6 Este 18 Nordeste 0 -- -- 68
2019-07-21 06:00:00 20.6 6 Este 18 Nordeste 0 -- -- 55
2019-07-21 05:00:00 21.4 10 Este 24 Nordeste 0 -- -- 47
2019-07-21 04:00:00 22 10 Este 22 Nordeste 0 -- -- 45
2019-07-21 03:00:00 23.2 8 Este 26 Este 0 -- -- 39
2019-07-21 02:00:00 24.4 11 Este 32 Sudeste 0 -- -- 35
2019-07-21 01:00:00 25.6 13 Este 27 Sudeste 0 -- -- 35
2019-07-21 00:00:00 26.9 11 Este 30 Este 0 -- -- 33
2019-07-20 23:00:00 28.5 18 Este 36 Sudeste 0 -- -- 31
2019-07-20 22:00:00 30 18 Este 36 Este 0 -- -- 32
2019-07-20 21:00:00 32.7 24 Sudeste 37 Este 0 -- -- 30
2019-07-20 20:00:00 35.5 14 Este 30 Este 0 -- -- 22
2019-07-20 19:00:00 37.8 12 Este 26 Este 0 -- -- 19
2019-07-20 18:00:00 39.6 5 Norte 23 Este 0 -- -- 15
2019-07-20 17:00:00 38.4 14 Este 32 Nordeste 0 -- -- 16
2019-07-20 16:00:00 38.3 9 Este 24 Sudoeste 0 -- -- 16
2019-07-20 15:00:00 37.8 5 Sur 22 Nordeste 0 -- -- 18
2019-07-20 14:00:00 37.5 4 Sudoeste 18 Este 0 -- -- 18
2019-07-20 13:00:00 36.5 4 Norte 15 Sudoeste 0 -- -- 21
2019-07-20 12:00:00 33.2 8 Sudeste 23 Este 0 -- -- 24
2019-07-20 11:00:00 30.9 15 Nordeste 23 Nordeste 0 -- -- 33
2019-07-20 10:00:00 28.2 8 Este 20 Este 0 -- -- 34
2019-07-20 09:00:00 24.7 4 Nordeste 22 Sudeste 0 -- -- 41
2019-07-20 08:00:00 20.1 9 Este 26 Este 0 -- -- 51
2019-07-20 07:00:00 19.5 9 Este 26 Nordeste 0 -- -- 54
2019-07-20 06:00:00 19.8 11 Este 27 Este 0 -- -- 56
2019-07-20 05:00:00 20.3 13 Nordeste 24 Nordeste 0 -- -- 56
2019-07-20 04:00:00 21 10 Este 24 Este 0 -- -- 51
2019-07-20 03:00:00 21.5 10 Este 24 Nordeste 0 -- -- 49
2019-07-20 02:00:00 22.5 15 Este 26 Este 0 -- -- 45
2019-07-20 01:00:00 25 10 Este 28 Este 0 -- -- 37
2019-07-20 00:00:00 26.1 19 Este 32 Este 0 -- -- 34
2019-07-19 23:00:00 27.2 15 Este 31 Sudeste 0 -- -- 29
2019-07-19 22:00:00 29 21 Este 31 Sudeste 0 -- -- 26
2019-07-19 21:00:00 31.4 21 Este 36 Este 0 -- -- 21
2019-07-19 20:00:00 34 15 Este 32 Este 0 -- -- 17
2019-07-19 19:00:00 35.6 15 Este 34 Este 0 -- -- 15
2019-07-19 18:00:00 36.2 19 Este 36 Este 0 -- -- 13
2019-07-19 17:00:00 36.1 18 Sudeste 37 Nordeste 0 -- -- 14
2019-07-19 16:00:00 36 19 Este 39 Sudeste 0 -- -- 17
2019-07-19 15:00:00 35.6 16 Este 31 Este 0 -- -- 19
2019-07-19 14:00:00 34.2 16 Este 36 Nordeste 0 -- -- 22
2019-07-19 13:00:00 33.7 14 Este 27 Este 0 -- -- 25
2019-07-19 12:00:00 31.1 12 Este 27 Nordeste 0 -- -- 30
2019-07-19 11:00:00 28 12 Este 27 Este 0 -- -- 36
2019-07-19 10:00:00 24.6 16 Este 27 Nordeste 0 -- -- 42
2019-07-19 09:00:00 22 11 Este 23 Sudeste 0 -- -- 46
2019-07-19 08:00:00 19.5 8 Este 19 Nordeste 0 -- -- 54
2019-07-19 07:00:00 18.6 10 Este 23 Nordeste 0 -- -- 56
2019-07-19 06:00:00 18.7 8 Nordeste 21 Nordeste 0 -- -- 55
2019-07-19 05:00:00 19.6 12 Nordeste 22 Este 0 -- -- 52
2019-07-19 04:00:00 20.3 12 Este 27 Este 0 -- -- 50
2019-07-19 03:00:00 21.5 15 Este 26 Nordeste 0 -- -- 52
2019-07-19 02:00:00 23 16 Este 26 Este 0 -- -- 46
2019-07-19 01:00:00 25.3 10 Nordeste 18 Norte 0 -- -- 40
2019-07-19 00:00:00 25.9 4 Sudeste 14 Sudeste 0 -- -- 38